Impacts TAF Board
For situational awareness. Not to be used for flight planning purposes.
IDs:

KOKC - Oklahoma City/Will R, OK, US

Issued at 0613 UTC 18 Sep 2021
Updated at 0745 UTC 18 Sep 2021
Potential Impact None Slight Moderate High
Time0652Z 18/08Z 18/09Z 18/10Z 18/11Z 18/12Z 18/13Z 18/14Z 18/15Z 18/16Z 18/17Z 18/18Z 18/19Z 18/20Z>>
Type OBS PRVL PRVL PRVL PRVL PRVL PRVL PRVL PRVL PRVL PRVL PRVL PRVL PRVL
VIS 10 >6 >6 >6 >6 >6 >6 >6 >6 >6 >6 >6 >6 >6
CIG -- -- -- -- -- -- -- -- -- -- -- -- -- --
Cover FEW SKC SKC SKC SKC SKC SKC SKC SKC SKC SKC SKC SKC SKC
FltCat VFR VFR VFR VFR VFR VFR VFR VFR VFR VFR VFR VFR VFR VFR
WX -- -- -- -- -- -- -- -- -- -- -- -- -- --
WDir 340 40 40 40 40 40 40 40 40 40 40 40 40 40
WSpd 4 7 7 7 7 7 7 7 7 7 7 7 7 7
WGst -- -- -- -- -- -- -- -- -- -- -- -- -- --
Raw TAF
KOKC 180613Z 1806/1906 04007KT P6SM SKC

Raw METAR
KOKC 180652Z 34004KT 10SM FEW120 FEW250 23/17 A3010 RMK AO2 SLP175 T02330167
KOKC 180552Z 00000KT 10SM FEW250 22/17 A3009 RMK AO2 SLP174 T02220167 10294 20217 403280183 50001
KOKC 180452Z 00000KT 10SM FEW250 24/17 A3010 RMK AO2 SLP176 T02390167

METAR Board
Radar Display
Forecast Discussion
For situational awareness. Not to be used for flight planning purposes.